Terminal Aerodrome Forecast
Issued by NWS Sioux Falls, SD

Home | Current Version | Previous Version | Text Only | Print | Product List | Glossary On
Versions: 1 2 3 4 5 6 7 8 9 10 11 12 13 14 15 16 17 18 19 20 21 22 23 24
000
FTUS43 KFSD 272320
TAFSUX
TAF
KSUX 272320Z 2800/2824 17008KT P6SM OVC070
     FM280100 13008KT 4SM -SN OVC040
      TEMPO 2802/2804 1SM -SN OVC025
     FM280500 12008KT P6SM OVC040
     FM281700 16014G21KT P6SM SCT040
     FM282100 17017G24KT P6SM SKC=

USA.gov is the U.S. government's official web portal to all federal, state and local government web resources and services.